ADDS METAR Data INFO
IDs: Format: Raw Decoded Include TAF

Data at: 1512 UTC 11 Dec 2017

KI19 111455Z AUTO 16004KT 10SM BKN085 M01/M04 A3004 RMK AO2 T10101040
KI19 111435Z AUTO 15004KT 10SM OVC095 M01/M04 A3005 RMK AO2 T10151042
KI19 111415Z AUTO 21003KT 10SM OVC095 M02/M04 A3008 RMK AO2 T10181043
KI19 111355Z AUTO 00000KT 10SM BKN095 M02/M04 A3007 RMK AO2 T10211045
KI19 111335Z AUTO 00000KT 10SM CLR M02/M05 A3007 RMK AO2 T10231047
KI19 111315Z AUTO 00000KT 10SM CLR M02/M05 A3008 RMK AO2 T10251050
KI19 111303Z AUTO 00000KT 10SM CLR M03/M05 A3008 RMK AO2 T10271051
KI19 111259Z AUTO 20003KT 10SM CLR M03/M05 A3008 RMK AO2
KI19 111159Z AUTO 00000KT 10SM OVC024 M02/M06 A3009 RMK AO2
KI19 111059Z AUTO 00000KT 10SM OVC024 M02/M06 A3009 RMK AO2
KI19 110959Z AUTO 00000KT 10SM OVC024 M01/M06 A3009 RMK AO2
KI19 110859Z AUTO 00000KT 10SM OVC024 M01/M05 A3008 RMK AO2
KI19 110759Z AUTO 34006KT 10SM OVC024 M01/M05 A3008 RMK AO2
KI19 110659Z AUTO 33007KT 10SM OVC024 00/M05 A3007 RMK AO2
KI19 110559Z AUTO 33005KT 10SM OVC028 00/M05 A3005 RMK AO2
KI19 110459Z AUTO 00000KT 10SM CLR 00/M05 A3004 RMK AO2
KI19 110359Z AUTO 27008KT 10SM SCT040 01/M06 A3002 RMK AO2
KI19 110259Z AUTO 24008KT 10SM OVC042 00/M06 A3001 RMK AO2
KI19 110159Z AUTO 22006KT 10SM OVC044 00/M06 A3001 RMK AO2
KI19 110059Z AUTO 22005KT 10SM OVC044 00/M06 A3002 RMK AO2
KI19 102359Z AUTO 23005KT 10SM SCT044 00/M06 A3002 RMK AO2
KI19 102259Z AUTO 23005KT 10SM CLR M01/M06 A3000 RMK AO2
KI19 102159Z AUTO 23006KT 10SM CLR 00/M07 A2998 RMK AO2
KI19 102055Z AUTO 21008KT 10SM CLR 00/M07 A2995 RMK AO2 T00001066
KI19 102035Z AUTO 22011G14KT 10SM SCT090 00/M07 A2996 RMK AO2 T00001066
KI19 102015Z AUTO 22011G18KT 10SM OVC090 00/M07 A2996 RMK AO2 T00001067
KI19 101955Z AUTO 22013G16KT 10SM OVC090 00/M06 A2997 RMK AO2 T10011065
KI19 101935Z AUTO 22011G18KT 10SM OVC090 00/M06 A2997 RMK AO2 T10051065
KI19 101915Z AUTO 23015G21KT 10SM OVC090 M01/M07 A2998 RMK AO2 T10081066
KI19 101855Z AUTO 23015G20KT 10SM OVC090 M01/M07 A2999 RMK AO2 T10101067
KI19 101835Z AUTO 24013G20KT 10SM OVC090 M01/M07 A3000 RMK AO2 T10101066
KI19 101815Z AUTO 23016G21KT 10SM OVC090 M01/M07 A3001 RMK AO2 T10111071
KI19 101755Z AUTO 24013G18KT 10SM OVC090 M01/M07 A3002 RMK AO2 T10141068 11014 21061
KI19 101735Z AUTO 23012G16KT 10SM OVC100 M02/M07 A3003 RMK AO2 T10171069
KI19 101715Z AUTO 23012G16KT 10SM OVC100 M02/M07 A3004 RMK AO2 T10211071
KI19 101655Z AUTO 23012G18KT 10SM BKN060 OVC100 M02/M07 A3006 RMK AO2 T10231074
KI19 101635Z AUTO 22012KT 10SM BKN070 BKN080 OVC100 M03/M07 A3008 RMK AO2 T10271075
KI19 101615Z AUTO 23012KT 10SM BKN080 OVC100 M03/M07 A3010 RMK AO2 T10301075
KI19 101555Z AUTO 24012KT 10SM BKN085 OVC090 M03/M07 A3010 RMK AO2 T10321075
KI19 101535Z AUTO 24010KT 10SM OVC085 M03/M08 A3011 RMK AO2 T10351077
KI19 101515Z AUTO 23010G14KT 10SM OVC085 M04/M08 A3011 RMK AO2 T10381077
KI19 101455Z AUTO 23009KT 10SM BKN085 BKN110 M04/M08 A3011 RMK AO2 T10401078
KI19 101435Z AUTO 23008G15KT 10SM OVC095 M04/M08 A3011 RMK AO2 T10451079
KI19 101415Z AUTO 24011G14KT 10SM BKN095 M05/M08 A3011 RMK AO2 T10461080
KI19 101356Z AUTO 24010KT 10SM SCT100 M05/M08 A3010 RMK AO2 T10501083
KI19 101335Z AUTO 23009KT 10SM CLR M05/M08 A3010 RMK AO2 T10521082
KI19 101315Z AUTO 24007KT 10SM CLR M06/M08 A3010 RMK AO2 T10571083
KI19 101255Z AUTO 23008KT 10SM SCT095 SCT120 M06/M08 A3011 RMK AO2 T10591085
KI19 101235Z AUTO 24007KT 10SM SCT110 M06/M08 A3011 RMK AO2 T10601085
KI19 101215Z AUTO 24006KT 10SM SCT032 M06/M08 A3011 RMK AO2 T10571085
KI19 101155Z AUTO 24008KT 10SM SCT032 M05/M08 A3010 RMK AO2 T10551083 11017 21055
KI19 101135Z AUTO 24007KT 10SM SCT025 M05/M08 A3010 RMK AO2 T10531083
KI19 101115Z AUTO 26008KT 10SM OVC025 M04/M08 A3009 RMK AO2 T10451079
KI19 101055Z AUTO 26007KT 10SM OVC023 M04/M07 A3009 RMK AO2 T10401072
KI19 101035Z AUTO 26008KT 10SM OVC023 M04/M07 A3008 RMK AO2 T10361070
KI19 101015Z AUTO 26008KT 10SM OVC021 M03/M06 A3008 RMK AO2 T10331063
KI19 100955Z AUTO 26008KT 10SM OVC019 M03/M06 A3008 RMK AO2 T10311063
KI19 100935Z AUTO 27004KT 10SM OVC019 M03/M06 A3007 RMK AO2 T10311063
KI19 100915Z AUTO 27009KT 10SM SCT019 OVC025 M03/M06 A3007 RMK AO2 T10301062
KI19 100855Z AUTO 27004KT 10SM BKN020 OVC026 M03/M06 A3008 RMK AO2 T10271056
KI19 100835Z AUTO 29005KT 10SM BKN022 OVC028 M03/M06 A3007 RMK AO2 T10281057
KI19 100815Z AUTO 30006KT 10SM SCT018 OVC028 M03/M05 A3007 RMK AO2 T10271055
KI19 100755Z AUTO 29004KT 10SM BKN016 OVC030 M02/M05 A3006 RMK AO2 T10231050
KI19 100735Z AUTO 31005KT 10SM BKN016 OVC032 M02/M05 A3006 RMK AO2 T10211047
KI19 100715Z AUTO 29003KT 10SM OVC016 M02/M04 A3005 RMK AO2 T10201045
KI19 100655Z AUTO 30003KT 10SM OVC016 M02/M04 A3005 RMK AO2 T10201045
KI19 100635Z AUTO 31004KT 10SM OVC014 M02/M04 A3004 RMK AO2 T10201043
KI19 100615Z AUTO 31004KT 10SM OVC014 M02/M04 A3003 RMK AO2 T10181040
KI19 100555Z AUTO 28008KT 260V320 10SM OVC012 M02/M04 A3003 RMK AO2 T10171036 11014 21023 410131070
KI19 100535Z AUTO 32006KT 10SM OVC012 M02/M03 A3002 RMK AO2 T10161033
KI19 100515Z AUTO 29004KT 10SM BKN014 OVC023 M01/M03 A3002 RMK AO2 T10151031
KI19 100455Z AUTO 32003KT 10SM SCT013 OVC025 M01/M03 A3001 RMK AO2 T10151031
KI19 100435Z AUTO 32007KT 10SM -SN BKN012 OVC017 M01/M03 A3000 RMK AO2 T10151029
KI19 100415Z AUTO 32005KT 290V350 7SM UP OVC011 M01/M03 A3000 RMK AO2 T10151026
KI19 100355Z AUTO 32008KT 260V360 7SM OVC012 M01/M03 A2999 RMK AO2 T10151027
KI19 100335Z AUTO 33007KT 7SM UP BKN015 OVC021 M01/M03 A2998 RMK AO2 T10151027
KI19 100315Z AUTO 33004KT 10SM SCT010 OVC017 M01/M03 A2997 RMK AO2 T10151027